Forest fire From: 18-06-2018 11:00 Until: 19-06-2018 10:14 warning for: Forest fire Level: Yellow info button
suomi:
Metsäpalovaroitus on voimassa.

svenska:
Varning för skogsbrand gäller.

english:
A forest fire warning is in force. 


Thunder radar more information blitzortung!


Löydät sääaseman tiedot myös:

European Weather Network

Finland Weather Exchange

Weather Underground

AWEKAS



Weather Underground säähistoriasivu

Päivittäin yhteenveto Syyskuu 15, 2017 Yksiköt:  Englantilaiset    Metriset   Molemmat
« Edellinen Päivä
Seuraava Päivä »
Päivittäin Viikoittain Kuukausittain Vuosittain Mukautettu
  Korkea: Matala: Keskiarvo:
Lämpötila: TemperatureC °F 7.0 °F 9.2 °F
Kastepiste: DewpointC °F 6.4 °F 8.1 °F
Kosteus: Humidity % 81 % 92 %
Tuulen nopeus: WindSpeedKMH mph 0.0 mph 1 mph
Tuulenpuuska: WindSpeedGustKMH mph - -
Tuuli:- - NW
Ilmanpaine: PressurehPa in 988.7 in -
Sade: 0.0 in    
Historical Graphs
 
 
Taulukkotiedot Syyskuu 15, 2017
Aika Lämpötila Kastepiste Ilmanpaine Tuuli Tuulen nopeus Tuulenpuuska Kosteus Sademäärä (tunneittain)
TemperatureC °F DewpointC °F PressurehPa in Calm     Humidity % HourlyPrecipMM in
00:00 10.8 °F 10.3 °F 988.7 in Calm   3.2 mph 97 % 0.0 in
00:15 10.9 °F 10.6 °F 988.7 in Calm   1.6 mph 98 % 0.0 in
00:30 10.9 °F 10.6 °F 988.7 in Calm   1.6 mph 98 % 0.0 in
00:45 11.0 °F 10.5 °F 989.1 in Calm   4.8 mph 97 % 0.0 in
01:00 11.0 °F 10.5 °F 989.1 in Calm   3.2 mph 97 % 0.0 in
01:15 11.0 °F 10.5 °F 989.1 in Calm   4.8 mph 97 % 0.0 in
01:30 10.9 °F 10.5 °F 989.1 in Calm   4.8 mph 97 % 0.0 in
01:45 10.9 °F 10.4 °F 989.4 in Calm   4.8 mph 97 % 0.0 in
02:00 10.7 °F 10.3 °F 989.4 in Calm   4.8 mph 97 % 0.0 in
02:15 10.6 °F 10.1 °F 989.4 in Calm   4.8 mph 97 % 0.0 in
02:30 10.3 °F 9.7 °F 989.4 in North 1.6 mph 9.7 mph 96 % 0.0 in
02:45 10.2 °F 9.6 °F 989.4 in Calm   4.8 mph 96 % 0.0 in
03:00 10.1 °F 9.7 °F 989.7 in Calm   4.8 mph 97 % 0.0 in
03:15 10.0 °F 10.0 °F 989.7 in Calm   3.2 mph 100 % 0.0 in
03:30 9.9 °F 9.3 °F 989.7 in Calm   3.2 mph 96 % 0.0 in
03:45 9.8 °F 9.2 °F 990.1 in Calm   4.8 mph 96 % 0.0 in
04:00 9.6 °F 9.0 °F 990.1 in Calm   3.2 mph 96 % 0.0 in
04:15 9.6 °F 8.9 °F 990.1 in Calm   1.6 mph 96 % 0.0 in
04:30 9.6 °F 8.9 °F 990.1 in Calm   1.6 mph 96 % 0.0 in
04:45 9.6 °F 8.9 °F 990.1 in Calm     96 % 0.0 in
05:00 9.6 °F 8.9 °F 990.4 in Calm     96 % 0.0 in
05:15 9.6 °F 8.9 °F 990.4 in Calm     96 % 0.0 in
05:30 9.6 °F 9.0 °F 990.4 in Calm     96 % 0.0 in
05:45 9.6 °F 9.0 °F 990.4 in Calm     96 % 0.0 in
06:00 9.7 °F 9.1 °F 990.4 in Calm     96 % 0.0 in
06:30 9.7 °F 9.1 °F 990.7 in Calm     96 % 0.0 in
06:45 9.7 °F 9.1 °F 990.7 in Calm   3.2 mph 96 % 0.0 in
07:00 9.7 °F 9.1 °F 990.7 in Calm   1.6 mph 96 % 0.0 in
07:15 9.6 °F 9.0 °F 990.7 in Calm     96 % 0.0 in
07:30 9.7 °F 9.1 °F 990.7 in Calm   9.7 mph 96 % 0.0 in
07:45 9.6 °F 8.9 °F 991.1 in North 3.2 mph 9.7 mph 96 % 0.0 in
08:00 9.2 °F 8.5 °F 991.1 in NNW 1.6 mph 6.4 mph 95 % 0.0 in
08:15 9.2 °F 8.4 °F 991.1 in NNW 1.6 mph 9.7 mph 95 % 0.0 in
08:30 9.2 °F 8.3 °F 991.4 in Calm   8.0 mph 94 % 0.0 in
08:45 9.2 °F 8.1 °F 991.4 in Calm   6.4 mph 93 % 0.0 in
09:00 9.2 °F 8.1 °F 991.4 in Calm   6.4 mph 93 % 0.0 in
09:15 9.3 °F 8.1 °F 991.8 in Calm   1.6 mph 92 % 0.0 in
09:30 9.5 °F 8.1 °F 991.4 in Calm   6.4 mph 91 % 0.0 in
09:45 9.4 °F 8.0 °F 991.8 in Calm   6.4 mph 91 % 0.0 in
10:00 9.6 °F 8.1 °F 991.8 in NW 3.2 mph 11.3 mph 90 % 0.0 in
10:15 9.6 °F 8.2 °F 991.8 in NNW 4.8 mph 12.9 mph 91 % 0.0 in
10:30 9.8 °F 8.2 °F 992.1 in NW 3.2 mph 11.3 mph 90 % 0.0 in
10:45 9.8 °F 8.2 °F 992.1 in NNW 1.6 mph 8.0 mph 90 % 0.0 in
11:00 9.7 °F 8.0 °F 992.4 in NW 3.2 mph 14.5 mph 89 % 0.0 in
11:15 9.9 °F 8.2 °F 992.4 in NNW 1.6 mph 17.7 mph 89 % 0.0 in
11:30 9.8 °F 8.2 °F 992.4 in NNW 1.6 mph 6.4 mph 90 % 0.0 in
11:45 9.7 °F 8.2 °F 992.8 in NW 1.6 mph 6.4 mph 90 % 0.0 in
12:00 9.9 °F 7.8 °F 992.8 in NNW 1.6 mph 6.4 mph 87 % 0.0 in
12:15 9.8 °F 7.9 °F 992.8 in NW 1.6 mph 9.7 mph 88 % 0.0 in
12:30 9.7 °F 8.0 °F 992.8 in NW 1.6 mph 9.7 mph 89 % 0.0 in
12:45 9.9 °F 8.0 °F 992.8 in NW 3.2 mph 12.9 mph 88 % 0.0 in
13:00 9.9 °F 7.8 °F 993.1 in NW 6.4 mph 16.1 mph 87 % 0.0 in
13:15 9.6 °F 7.7 °F 993.1 in NW 4.8 mph 14.5 mph 88 % 0.0 in
13:30 9.3 °F 7.8 °F 993.5 in NW 6.4 mph 12.9 mph 90 % 0.0 in
13:45 9.4 °F 8.2 °F 993.5 in NW 4.8 mph 12.9 mph 92 % 0.0 in
14:00 9.3 °F 7.9 °F 993.5 in NW 3.2 mph 12.9 mph 91 % 0.0 in
14:15 9.3 °F 7.9 °F 993.5 in NW 4.8 mph 9.7 mph 91 % 0.0 in
14:30 9.3 °F 7.9 °F 993.8 in NW 3.2 mph 11.3 mph 91 % 0.0 in
14:45 9.6 °F 8.0 °F 993.8 in NW 1.6 mph 8.0 mph 90 % 0.0 in
15:00 9.6 °F 8.0 °F 993.8 in Calm   3.2 mph 90 % 0.0 in
15:15 9.7 °F 8.5 °F 993.8 in Calm   6.4 mph 92 % 0.0 in
15:30 9.9 °F 7.8 °F 993.5 in NW 3.2 mph 14.5 mph 87 % 0.0 in
16:00 10.2 °F 7.5 °F 993.8 in NW 4.8 mph 12.9 mph 83 % 0.0 in
16:15 10.3 °F 7.4 °F 993.8 in WNW 1.6 mph 17.7 mph 82 % 0.0 in
16:30 10.3 °F 7.2 °F 993.8 in NW 4.8 mph 16.1 mph 81 % 0.0 in
17:00 10.1 °F 7.1 °F 993.8 in NW 3.2 mph 16.1 mph 82 % 0.0 in
17:15 9.9 °F 7.0 °F 993.8 in NW 3.2 mph 16.1 mph 82 % 0.0 in
17:30 9.8 °F 7.1 °F 994.1 in WNW 1.6 mph 9.7 mph 83 % 0.0 in
17:45 9.8 °F 7.2 °F 993.8 in WNW 1.6 mph 8.0 mph 84 % 0.0 in
18:00 9.8 °F 7.5 °F 993.8 in Calm   3.2 mph 86 % 0.0 in
18:15 9.7 °F 7.5 °F 994.1 in WNW 1.6 mph 6.4 mph 86 % 0.0 in
18:30 9.7 °F 7.8 °F 994.1 in Calm   4.8 mph 88 % 0.0 in
18:45 9.5 °F 7.4 °F 994.1 in Calm   8.0 mph 87 % 0.0 in
19:00 9.2 °F 7.5 °F 994.5 in Calm     89 % 0.0 in
19:15 8.9 °F 7.6 °F 994.5 in Calm     91 % 0.0 in
19:30 8.5 °F 7.3 °F 994.5 in Calm     92 % 0.0 in
19:45 8.2 °F 7.1 °F 994.8 in Calm     93 % 0.0 in
20:00 7.9 °F 7.0 °F 994.8 in Calm     94 % 0.0 in
20:15 7.7 °F 6.8 °F 994.8 in Calm     94 % 0.0 in
20:30 7.4 °F 6.7 °F 995.1 in Calm   4.8 mph 95 % 0.0 in
20:45 7.3 °F 6.6 °F 995.1 in Calm     95 % 0.0 in
21:00 7.3 °F 6.7 °F 995.1 in Calm     96 % 0.0 in
21:15 7.2 °F 6.6 °F 995.1 in Calm     96 % 0.0 in
21:30 7.1 °F 6.5 °F 995.1 in Calm     96 % 0.0 in
21:45 7.1 °F 6.5 °F 994.8 in Calm     96 % 0.0 in
22:00 7.1 °F 6.5 °F 994.8 in Calm   6.4 mph 96 % 0.0 in
22:15 7.2 °F 6.6 °F 995.1 in Calm   3.2 mph 96 % 0.0 in
22:30 7.2 °F 6.6 °F 995.1 in Calm   4.8 mph 96 % 0.0 in
22:45 7.1 °F 6.5 °F 995.1 in Calm     96 % 0.0 in
23:00 7.1 °F 6.5 °F 995.1 in Calm     96 % 0.0 in
23:15 7.0 °F 6.4 °F 995.1 in Calm   4.8 mph 96 % 0.0 in
23:30 7.0 °F 6.4 °F 995.1 in Calm   3.2 mph 96 % 0.0 in
23:45 7.0 °F 6.6 °F 995.5 in Calm     97 % 0.0 in
Esan sääasema
Terveisin Weather Underground - 2.75 mb

Alkuperäinen skripti  Jim McMurry - jmcmurry@mwt.net Sovitettu myös templatelle  Wim van der Kuil - Leuven-Template.eu

Laitteet joita käytämme:

Sääasema
Davis VP2

Sääasemaohjelma
Cumulus

Sääaseman tietokone
Asus EeePC

Palveluntarjoaja
Suncomet

Davis VP2

Cumulus

Asus EeePC

Suncomet